sensor_id;sensor_type;location;lat;lon;timestamp;pressure;altitude;pressure_sealevel;temperature;humidity
85653;BME280;76083;49.012;8.384;2024-02-23T15:49:42;98374.91;;;19.35;36.83
85653;BME280;76083;49.012;8.384;2024-02-23T15:51:14;98372.25;;;20.38;34.94
85653;BME280;76083;49.012;8.384;2024-02-23T15:52:14;98362.13;;;20.11;35.10
85653;BME280;76083;49.012;8.384;2024-02-23T15:53:15;98368.66;;;20.10;37.72
85653;BME280;76083;49.012;8.384;2024-02-23T15:54:09;98370.88;;;20.08;35.04
85653;BME280;76083;49.012;8.384;2024-02-23T15:54:19;98368.47;;;20.06;34.55
85653;BME280;76083;49.012;8.384;2024-02-23T15:54:29;98368.75;;;20.05;34.52
85653;BME280;76083;49.012;8.384;2024-02-23T15:54:39;98370.66;;;20.04;34.48
85653;BME280;76083;49.012;8.384;2024-02-23T15:54:51;98370.66;;;20.04;34.87
85653;BME280;76083;49.012;8.384;2024-02-23T15:55:01;98369.34;;;20.02;34.33
85653;BME280;76083;49.012;8.384;2024-02-23T15:55:12;98365.53;;;20.03;34.15
85653;BME280;76083;49.012;8.384;2024-02-23T15:55:22;98372.88;;;20.02;34.11
85653;BME280;76083;49.012;8.384;2024-02-23T15:55:32;98365.84;;;20.01;34.07
85653;BME280;76083;49.012;8.384;2024-02-23T15:55:42;98366.34;;;20.03;34.28
85653;BME280;76083;49.012;8.384;2024-02-23T15:55:52;98362.22;;;20.06;34.08
85653;BME280;76083;49.012;8.384;2024-02-23T15:56:03;98371.16;;;20.06;34.05
85653;BME280;76083;49.012;8.384;2024-02-23T15:56:13;98368.47;;;20.06;34.26
85653;BME280;76083;49.012;8.384;2024-02-23T15:56:23;98357.59;;;20.06;34.21
85653;BME280;76083;49.012;8.384;2024-02-23T15:56:33;98367.66;;;20.06;34.05
85653;BME280;76083;49.012;8.384;2024-02-23T15:56:44;98366.56;;;20.07;34.96
85653;BME280;76083;49.012;8.384;2024-02-23T15:56:54;98368.16;;;20.08;33.98
85653;BME280;76083;49.012;8.384;2024-02-23T15:57:07;98368.97;;;20.08;34.04
85653;BME280;76083;49.012;8.384;2024-02-23T15:57:17;98362.75;;;20.08;34.01
85653;BME280;76083;49.012;8.384;2024-02-23T15:57:27;98360.84;;;20.08;34.04
85653;BME280;76083;49.012;8.384;2024-02-23T15:57:38;98366.25;;;20.08;33.93
85653;BME280;76083;49.012;8.384;2024-02-23T15:57:49;98366.75;;;20.10;33.81
85653;BME280;76083;49.012;8.384;2024-02-23T15:57:59;98362.44;;;20.09;33.79
85653;BME280;76083;49.012;8.384;2024-02-23T15:58:09;98366.75;;;20.10;33.53
85653;BME280;76083;49.012;8.384;2024-02-23T15:58:19;98366.25;;;20.08;33.45
85653;BME280;76083;49.012;8.384;2024-02-23T15:58:29;98368.97;;;20.08;33.48
85653;BME280;76083;49.012;8.384;2024-02-23T15:58:40;98366.75;;;20.10;34.21
85653;BME280;76083;49.012;8.384;2024-02-23T15:58:50;98367.88;;;20.09;33.88
85653;BME280;76083;49.012;8.384;2024-02-23T15:59:00;98365.66;;;20.11;33.97
85653;BME280;76083;49.012;8.384;2024-02-23T15:59:11;98368.06;;;20.13;33.53
85653;BME280;76083;49.012;8.384;2024-02-23T15:59:21;98365.06;;;20.15;33.37
85653;BME280;76083;49.012;8.384;2024-02-23T15:59:31;98366.75;;;20.10;33.56
85653;BME280;76083;49.012;8.384;2024-02-23T15:59:42;98363.84;;;20.07;33.38
85653;BME280;76083;49.012;8.384;2024-02-23T15:59:52;98361.44;;;20.05;33.35
85653;BME280;76083;49.012;8.384;2024-02-23T16:00:02;98371.47;;;20.05;33.10
85653;BME280;76083;49.012;8.384;2024-02-23T16:00:13;98360.31;;;20.06;33.68
85653;BME280;76083;49.012;8.384;2024-02-23T16:00:23;98366.75;;;20.10;33.74
85653;BME280;76083;49.012;8.384;2024-02-23T16:00:33;98367.56;;;20.11;33.32
85653;BME280;76083;49.012;8.384;2024-02-23T16:00:43;98361.84;;;20.12;33.26
85653;BME280;76083;49.012;8.384;2024-02-23T16:00:54;98366.97;;;20.14;33.51
85653;BME280;76083;49.012;8.384;2024-02-23T16:01:05;98366.56;;;20.07;32.89
85653;BME280;76083;49.012;8.384;2024-02-23T16:01:15;98363.63;;;20.03;32.88
85653;BME280;76083;49.012;8.384;2024-02-23T16:01:25;98369.06;;;20.03;33.30
85653;BME280;76083;49.012;8.384;2024-02-23T16:01:36;98362.53;;;20.04;33.07
85653;BME280;76083;49.012;8.384;2024-02-23T16:01:46;98364.13;;;20.05;33.13
85653;BME280;76083;49.012;8.384;2024-02-23T16:01:57;98358.41;;;20.07;33.10
85653;BME280;76083;49.012;8.384;2024-02-23T16:02:07;98363.53;;;20.08;33.01
85653;BME280;76083;49.012;8.384;2024-02-23T16:02:18;98366.47;;;20.12;32.83
85653;BME280;76083;49.012;8.384;2024-02-23T16:02:28;98362.34;;;20.15;32.89
85653;BME280;76083;49.012;8.384;2024-02-23T16:02:39;98364.75;;;20.16;32.84
85653;BME280;76083;49.012;8.384;2024-02-23T16:02:49;98363.16;;;20.15;32.57
85653;BME280;76083;49.012;8.384;2024-02-23T16:02:59;98360.75;;;20.13;32.46
85653;BME280;76083;49.012;8.384;2024-02-23T16:03:10;98366.75;;;20.10;32.77
85653;BME280;76083;49.012;8.384;2024-02-23T16:03:20;98360.22;;;20.11;32.65
85653;BME280;76083;49.012;8.384;2024-02-23T16:03:30;98360.75;;;20.13;32.49
85653;BME280;76083;49.012;8.384;2024-02-23T16:03:41;98358.84;;;20.14;32.55
85653;BME280;76083;49.012;8.384;2024-02-23T16:03:51;98359.44;;;20.11;32.68
85653;BME280;76083;49.012;8.384;2024-02-23T16:04:01;98363.25;;;20.10;32.74
85653;BME280;76083;49.012;8.384;2024-02-23T16:04:11;98359.44;;;20.11;32.69
85653;BME280;76083;49.012;8.384;2024-02-23T16:04:21;98365.66;;;20.11;32.81
85653;BME280;76083;49.012;8.384;2024-02-23T16:04:32;98362.94;;;20.11;32.80
85653;BME280;76083;49.012;8.384;2024-02-23T16:04:42;98363.75;;;20.12;32.86
85653;BME280;76083;49.012;8.384;2024-02-23T16:04:52;98363.44;;;20.13;32.95
85653;BME280;76083;49.012;8.384;2024-02-23T16:05:03;98363.16;;;20.15;32.71
85653;BME280;76083;49.012;8.384;2024-02-23T16:05:13;98361.53;;;20.14;32.70
85653;BME280;76083;49.012;8.384;2024-02-23T16:05:23;98368.59;;;20.15;32.68
85653;BME280;76083;49.012;8.384;2024-02-23T16:05:33;98362.34;;;20.15;32.85
85653;BME280;76083;49.012;8.384;2024-02-23T16:05:44;98365.56;;;20.17;32.83
85653;BME280;76083;49.012;8.384;2024-02-23T16:05:54;98366.06;;;20.19;32.81
85653;BME280;76083;49.012;8.384;2024-02-23T16:06:04;98371.50;;;20.19;32.65
85653;BME280;76083;49.012;8.384;2024-02-23T16:06:15;98367.09;;;20.23;34.46
85653;BME280;76083;49.012;8.384;2024-02-23T16:06:25;98367.00;;;20.28;32.97
85653;BME280;76083;49.012;8.384;2024-02-23T16:06:36;98364.81;;;21.89;64.30
85653;BME280;76083;49.012;8.384;2024-02-23T16:06:57;98363.91;;;21.58;32.49
85653;BME280;76083;49.012;8.384;2024-02-23T16:07:07;98372.03;;;21.35;32.97
85653;BME280;76083;49.012;8.384;2024-02-23T16:07:18;98369.41;;;21.30;33.15
85653;BME280;76083;49.012;8.384;2024-02-23T16:07:28;98375.44;;;21.27;32.11
85653;BME280;76083;49.012;8.384;2024-02-23T16:07:38;98368.88;;;21.28;31.38
85653;BME280;76083;49.012;8.384;2024-02-23T16:07:48;98366.16;;;21.28;33.51
85653;BME280;76083;49.012;8.384;2024-02-23T16:07:58;98369.41;;;21.30;32.66
85653;BME280;76083;49.012;8.384;2024-02-23T16:08:09;98364.78;;;21.31;31.30
85653;BME280;76083;49.012;8.384;2024-02-23T16:08:38;98364.97;;;21.34;34.05
85653;BME280;76083;49.012;8.384;2024-02-23T16:08:49;98373.94;;;21.35;31.88
85653;BME280;76083;49.012;8.384;2024-02-23T16:09:00;98372.03;;;21.35;30.83
85653;BME280;76083;49.012;8.384;2024-02-23T16:09:10;98373.94;;;21.35;30.58
85653;BME280;76083;49.012;8.384;2024-02-23T16:09:20;98370.41;;;21.34;30.49
85653;BME280;76083;49.012;8.384;2024-02-23T16:09:30;98380.78;;;21.32;31.11
85653;BME280;76083;49.012;8.384;2024-02-23T16:09:40;98375.84;;;21.34;30.84
85653;BME280;76083;49.012;8.384;2024-02-23T16:09:50;98371.22;;;21.35;30.55
85653;BME280;76083;49.012;8.384;2024-02-23T16:10:01;98372.03;;;21.35;30.29
85653;BME280;76083;49.012;8.384;2024-02-23T16:10:31;98373.75;;;21.31;30.34
85653;BME280;76083;49.012;8.384;2024-02-23T16:10:42;98372.63;;;21.32;30.07
85653;BME280;76083;49.012;8.384;2024-02-23T16:10:52;98368.81;;;21.33;30.00
85653;BME280;76083;49.012;8.384;2024-02-23T16:11:02;98368.00;;;21.33;30.19
85653;BME280;76083;49.012;8.384;2024-02-23T16:11:31;98368.88;;;21.28;33.09
85653;BME280;76083;49.012;8.384;2024-02-23T16:11:45;98370.00;;;21.27;32.52
85653;BME280;76083;49.012;8.384;2024-02-23T16:11:56;98373.03;;;21.26;30.94
85653;BME280;76083;49.012;8.384;2024-02-23T16:12:07;98372.72;;;21.27;31.43
85653;BME280;76083;49.012;8.384;2024-02-23T16:12:17;98373.03;;;21.26;31.17
85653;BME280;76083;49.012;8.384;2024-02-23T16:12:27;98374.63;;;21.27;30.06
85653;BME280;76083;49.012;8.384;2024-02-23T16:12:38;98365.69;;;21.26;30.30
85653;BME280;76083;49.012;8.384;2024-02-23T16:12:51;98371.09;;;21.26;29.88
85653;BME280;76083;49.012;8.384;2024-02-23T16:13:02;98374.31;;;21.28;30.06
85653;BME280;76083;49.012;8.384;2024-02-23T16:13:12;98376.22;;;21.28;30.27
85653;BME280;76083;49.012;8.384;2024-02-23T16:13:22;98373.25;;;21.29;30.18
85653;BME280;76083;49.012;8.384;2024-02-23T16:13:33;98371.81;;;21.32;30.01
85653;BME280;76083;49.012;8.384;2024-02-23T16:13:43;98370.72;;;21.33;30.15
85653;BME280;76083;49.012;8.384;2024-02-23T16:13:53;98371.03;;;21.31;29.61
85653;BME280;76083;49.012;8.384;2024-02-23T16:14:03;98369.41;;;21.30;29.77
85653;BME280;76083;49.012;8.384;2024-02-23T16:14:14;98369.09;;;21.32;29.69
85653;BME280;76083;49.012;8.384;2024-02-23T16:14:24;98371.59;;;21.28;29.71
85653;BME280;76083;49.012;8.384;2024-02-23T16:14:34;98368.88;;;21.28;30.13
85653;BME280;76083;49.012;8.384;2024-02-23T16:14:45;98376.47;;;21.31;32.47
85653;BME280;76083;49.012;8.384;2024-02-23T16:14:55;98374.53;;;21.32;32.58
85653;BME280;76083;49.012;8.384;2024-02-23T16:15:06;98378.44;;;21.26;31.59
85653;BME280;76083;49.012;8.384;2024-02-23T16:15:16;98371.09;;;21.26;30.86
85653;BME280;76083;49.012;8.384;2024-02-23T16:15:26;98370.53;;;21.29;31.14
85653;BME280;76083;49.012;8.384;2024-02-23T16:15:37;98370.22;;;21.31;30.65
85653;BME280;76083;49.012;8.384;2024-02-23T16:15:47;98377.56;;;21.30;31.04
85653;BME280;76083;49.012;8.384;2024-02-23T16:15:57;98375.34;;;21.32;30.71
85653;BME280;76083;49.012;8.384;2024-02-23T16:16:09;98378.06;;;21.32;30.59
85653;BME280;76083;49.012;8.384;2024-02-23T16:16:19;98378.88;;;21.33;30.58
85653;BME280;76083;49.012;8.384;2024-02-23T16:16:29;98375.84;;;21.34;30.42
85653;BME280;76083;49.012;8.384;2024-02-23T16:16:40;98377.75;;;21.34;30.83
85653;BME280;76083;49.012;8.384;2024-02-23T16:16:50;98369.59;;;21.34;33.82
85653;BME280;76083;49.012;8.384;2024-02-23T16:17:00;98373.63;;;21.36;32.02
85653;BME280;76083;49.012;8.384;2024-02-23T16:17:10;98368.06;;;21.42;35.31
85653;BME280;76083;49.012;8.384;2024-02-23T16:17:20;98377.16;;;21.37;36.00
85653;BME280;76083;49.012;8.384;2024-02-23T16:17:31;98374.75;;;21.35;32.37
85653;BME280;76083;49.012;8.384;2024-02-23T16:17:41;98375.16;;;21.29;33.12
85653;BME280;76083;49.012;8.384;2024-02-23T16:17:51;98367.81;;;21.29;33.42
85653;BME280;76083;49.012;8.384;2024-02-23T16:18:01;98378.25;;;21.36;37.89
85653;BME280;76083;49.012;8.384;2024-02-23T16:18:11;98368.38;;;21.40;34.02
85653;BME280;76083;49.012;8.384;2024-02-23T16:18:22;98362.75;;;21.36;32.80
85653;BME280;76083;49.012;8.384;2024-02-23T16:18:32;98370.22;;;21.31;34.67
85653;BME280;76083;49.012;8.384;2024-02-23T16:18:42;98369.38;;;21.17;31.49
85653;BME280;76083;49.012;8.384;2024-02-23T16:18:53;98370.41;;;21.07;31.28
85653;BME280;76083;49.012;8.384;2024-02-23T16:19:03;98374.22;;;21.06;32.03
85653;BME280;76083;49.012;8.384;2024-02-23T16:19:13;98375.44;;;21.00;33.49
85653;BME280;76083;49.012;8.384;2024-02-23T16:19:23;98367.13;;;20.83;32.27
85653;BME280;76083;49.012;8.384;2024-02-23T16:19:33;98366.59;;;20.81;32.54
85653;BME280;76083;49.012;8.384;2024-02-23T16:19:43;98366.19;;;20.73;32.74
85653;BME280;76083;49.012;8.384;2024-02-23T16:19:54;98366.78;;;20.70;33.74
85653;BME280;76083;49.012;8.384;2024-02-23T16:20:04;98365.06;;;20.74;32.42
85653;BME280;76083;49.012;8.384;2024-02-23T16:20:15;98364.78;;;20.62;31.65
85653;BME280;76083;49.012;8.384;2024-02-23T16:20:25;98369.59;;;20.65;32.15
85653;BME280;76083;49.012;8.384;2024-02-23T16:20:35;98363.59;;;20.82;33.82
85653;BME280;76083;49.012;8.384;2024-02-23T16:20:45;98370.34;;;20.85;33.45
85653;BME280;76083;49.012;8.384;2024-02-23T16:20:56;98373.13;;;21.07;38.45
85653;BME280;76083;49.012;8.384;2024-02-23T16:21:06;98369.41;;;21.03;33.17
85653;BME280;76083;49.012;8.384;2024-02-23T16:21:16;98371.50;;;21.06;32.29
85653;BME280;76083;49.012;8.384;2024-02-23T16:21:26;98368.09;;;21.14;31.90
85653;BME280;76083;49.012;8.384;2024-02-23T16:21:37;98372.41;;;21.15;34.47
85653;BME280;76083;49.012;8.384;2024-02-23T16:21:49;98372.09;;;21.17;33.82
85653;BME280;76083;49.012;8.384;2024-02-23T16:21:59;98370.38;;;21.21;31.95
85653;BME280;76083;49.012;8.384;2024-02-23T16:22:10;98370.69;;;21.19;31.20
85653;BME280;76083;49.012;8.384;2024-02-23T16:22:20;98373.22;;;21.16;31.28
85653;BME280;76083;49.012;8.384;2024-02-23T16:22:30;98365.97;;;21.11;32.34
85653;BME280;76083;49.012;8.384;2024-02-23T16:22:43;98363.56;;;21.10;32.71
85653;BME280;76083;49.012;8.384;2024-02-23T16:22:53;98367.38;;;21.09;33.33
85653;BME280;76083;49.012;8.384;2024-02-23T16:23:04;98360.66;;;21.06;31.99
85653;BME280;76083;49.012;8.384;2024-02-23T16:23:14;98372.63;;;21.05;32.43
85653;BME280;76083;49.012;8.384;2024-02-23T16:23:25;98368.19;;;21.09;32.16
85653;BME280;76083;49.012;8.384;2024-02-23T16:23:35;98365.97;;;21.11;31.27
85653;BME280;76083;49.012;8.384;2024-02-23T16:23:45;98368.88;;;21.15;31.30
85653;BME280;76083;49.012;8.384;2024-02-23T16:23:59;98365.25;;;21.19;31.38
85653;BME280;76083;49.012;8.384;2024-02-23T16:24:09;98366.97;;;21.15;32.55
85653;BME280;76083;49.012;8.384;2024-02-23T16:24:19;98371.41;;;21.11;32.01
85653;BME280;76083;49.012;8.384;2024-02-23T16:24:29;98369.31;;;21.08;32.00
85653;BME280;76083;49.012;8.384;2024-02-23T16:24:39;98366.78;;;21.12;31.67
85653;BME280;76083;49.012;8.384;2024-02-23T16:24:50;98365.59;;;21.04;31.30
85653;BME280;76083;49.012;8.384;2024-02-23T16:25:00;98370.13;;;20.95;31.46
85653;BME280;76083;49.012;8.384;2024-02-23T16:25:10;98368.41;;;20.99;31.43
85653;BME280;76083;49.012;8.384;2024-02-23T16:25:21;98372.44;;;21.01;31.28
85653;BME280;76083;49.012;8.384;2024-02-23T16:25:32;98366.38;;;21.04;31.50
85653;BME280;76083;49.012;8.384;2024-02-23T16:25:42;98364.78;;;21.03;31.27
85653;BME280;76083;49.012;8.384;2024-02-23T16:25:52;98368.41;;;20.99;31.28
85653;BME280;76083;49.012;8.384;2024-02-23T16:26:03;98369.91;;;20.91;30.91
85653;BME280;76083;49.012;8.384;2024-02-23T16:26:13;98371.63;;;21.01;34.69
85653;BME280;76083;49.012;8.384;2024-02-23T16:26:23;98368.91;;;21.01;32.08
85653;BME280;76083;49.012;8.384;2024-02-23T16:26:34;98362.38;;;21.02;31.70
85653;BME280;76083;49.012;8.384;2024-02-23T16:26:44;98363.19;;;21.02;31.35
85653;BME280;76083;49.012;8.384;2024-02-23T16:26:54;98367.19;;;21.05;31.43
85653;BME280;76083;49.012;8.384;2024-02-23T16:27:05;98363.47;;;21.01;31.52
85653;BME280;76083;49.012;8.384;2024-02-23T16:27:15;98368.41;;;20.99;33.86
85653;BME280;76083;49.012;8.384;2024-02-23T16:27:25;98364.09;;;20.98;32.87
85653;BME280;76083;49.012;8.384;2024-02-23T16:27:35;98362.69;;;21.00;34.99
85653;BME280;76083;49.012;8.384;2024-02-23T16:27:45;98375.97;;;20.88;32.68
85653;BME280;76083;49.012;8.384;2024-02-23T16:27:56;98366.81;;;20.84;32.34
85653;BME280;76083;49.012;8.384;2024-02-23T16:28:06;98369.22;;;20.86;32.92
85653;BME280;76083;49.012;8.384;2024-02-23T16:28:16;98364.41;;;20.83;33.09
85653;BME280;76083;49.012;8.384;2024-02-23T16:28:26;98363.00;;;20.85;31.79
85653;BME280;76083;49.012;8.384;2024-02-23T16:28:36;98364.41;;;20.83;33.51
85653;BME280;76083;49.012;8.384;2024-02-23T16:28:47;98363.66;;;20.77;32.58
85653;BME280;76083;49.012;8.384;2024-02-23T16:28:57;98359.94;;;20.73;32.00
85653;BME280;76083;49.012;8.384;2024-02-23T16:29:07;98369.41;;;20.75;33.36
85653;BME280;76083;49.012;8.384;2024-02-23T16:29:17;98360.06;;;20.68;32.24
85653;BME280;76083;49.012;8.384;2024-02-23T16:29:27;98366.88;;;20.65;32.16
85653;BME280;76083;49.012;8.384;2024-02-23T16:29:38;98369.59;;;20.65;32.72
85653;BME280;76083;49.012;8.384;2024-02-23T16:29:48;98361.97;;;20.67;33.20
85653;BME280;76083;49.012;8.384;2024-02-23T16:29:58;98368.00;;;20.64;32.87
85653;BME280;76083;49.012;8.384;2024-02-23T16:30:09;98365.78;;;20.66;32.76
85653;BME280;76083;49.012;8.384;2024-02-23T16:30:19;98369.00;;;20.68;32.29
85653;BME280;76083;49.012;8.384;2024-02-23T16:30:30;98366.38;;;20.63;31.71
85653;BME280;76083;49.012;8.384;2024-02-23T16:30:40;98370.72;;;20.64;33.34
85653;BME280;76083;49.012;8.384;2024-02-23T16:30:50;98364.38;;;20.55;32.04
85653;BME280;76083;49.012;8.384;2024-02-23T16:31:00;98373.63;;;20.54;32.29
85653;BME280;76083;49.012;8.384;2024-02-23T16:31:11;98364.06;;;20.57;33.15
85653;BME280;76083;49.012;8.384;2024-02-23T16:31:21;98359.94;;;20.59;33.23
85653;BME280;76083;49.012;8.384;2024-02-23T16:31:33;98369.59;;;20.65;34.41
85653;BME280;76083;49.012;8.384;2024-02-23T16:31:44;98364.38;;;20.69;33.17
85653;BME280;76083;49.012;8.384;2024-02-23T16:31:54;98362.47;;;20.69;33.15
85653;BME280;76083;49.012;8.384;2024-02-23T16:32:04;98370.00;;;20.72;33.42
85653;BME280;76083;49.012;8.384;2024-02-23T16:32:15;98374.66;;;20.86;33.02
85653;BME280;76083;49.012;8.384;2024-02-23T16:32:25;98369.22;;;20.86;32.66
85653;BME280;76083;49.012;8.384;2024-02-23T16:32:35;98367.00;;;20.74;31.58
85653;BME280;76083;49.012;8.384;2024-02-23T16:32:45;98370.50;;;20.74;32.31
85653;BME280;76083;49.012;8.384;2024-02-23T16:32:55;98367.00;;;20.74;32.68
85653;BME280;76083;49.012;8.384;2024-02-23T16:33:06;98363.66;;;20.77;32.63
85653;BME280;76083;49.012;8.384;2024-02-23T16:33:16;98369.28;;;20.81;32.57
85653;BME280;76083;49.012;8.384;2024-02-23T16:33:26;98368.22;;;20.82;32.80
85653;BME280;76083;49.012;8.384;2024-02-23T16:33:36;98369.84;;;20.83;32.62
85653;BME280;76083;49.012;8.384;2024-02-23T16:33:46;98363.78;;;20.86;32.42
85653;BME280;76083;49.012;8.384;2024-02-23T16:33:56;98370.53;;;20.88;32.43
85653;BME280;76083;49.012;8.384;2024-02-23T16:34:07;98368.63;;;20.89;32.43
85653;BME280;76083;49.012;8.384;2024-02-23T16:34:17;98367.91;;;20.83;32.20
85653;BME280;76083;49.012;8.384;2024-02-23T16:34:27;98370.03;;;20.86;32.28
85653;BME280;76083;49.012;8.384;2024-02-23T16:34:37;98364.41;;;20.83;32.44
85653;BME280;76083;49.012;8.384;2024-02-23T16:34:47;98372.00;;;20.81;32.92
85653;BME280;76083;49.012;8.384;2024-02-23T16:34:57;98371.81;;;20.77;33.05
85653;BME280;76083;49.012;8.384;2024-02-23T16:35:08;98371.50;;;20.79;32.81
85653;BME280;76083;49.012;8.384;2024-02-23T16:35:18;98367.69;;;20.80;32.56
85653;BME280;76083;49.012;8.384;2024-02-23T16:35:28;98359.53;;;20.80;32.52
85653;BME280;76083;49.012;8.384;2024-02-23T16:35:38;98371.44;;;20.84;33.02
85653;BME280;76083;49.012;8.384;2024-02-23T16:36:09;98367.41;;;20.95;32.57
85653;BME280;76083;49.012;8.384;2024-02-23T16:36:19;98375.25;;;20.96;32.60
85653;BME280;76083;49.012;8.384;2024-02-23T16:36:30;98366.00;;;20.97;32.35
85653;BME280;76083;49.012;8.384;2024-02-23T16:36:40;98368.22;;;20.95;33.04
85653;BME280;76083;49.012;8.384;2024-02-23T16:36:50;98371.84;;;20.91;32.99
85653;BME280;76083;49.012;8.384;2024-02-23T16:37:00;98369.91;;;20.91;33.05
85653;BME280;76083;49.012;8.384;2024-02-23T16:37:10;98363.00;;;20.85;32.88
85653;BME280;76083;49.012;8.384;2024-02-23T16:37:21;98371.63;;;20.87;33.19
85653;BME280;76083;49.012;8.384;2024-02-23T16:37:31;98369.91;;;20.91;32.81
85653;BME280;76083;49.012;8.384;2024-02-23T16:37:41;98366.09;;;20.92;32.48
85653;BME280;76083;49.012;8.384;2024-02-23T16:37:51;98369.00;;;20.96;34.26
85653;BME280;76083;49.012;8.384;2024-02-23T16:38:02;98371.94;;;20.99;33.62
85653;BME280;76083;49.012;8.384;2024-02-23T16:38:12;98367.22;;;20.91;32.72
85653;BME280;76083;49.012;8.384;2024-02-23T16:38:23;98364.19;;;20.93;32.82
85653;BME280;76083;49.012;8.384;2024-02-23T16:38:33;98365.50;;;20.95;32.66
85653;BME280;76083;49.012;8.384;2024-02-23T16:38:43;98367.91;;;20.97;33.31
85653;BME280;76083;49.012;8.384;2024-02-23T16:38:53;98362.38;;;21.02;32.71
85653;BME280;76083;49.012;8.384;2024-02-23T16:39:04;98369.00;;;20.96;32.60
85653;BME280;76083;49.012;8.384;2024-02-23T16:39:14;98363.97;;;21.03;32.69
85653;BME280;76083;49.012;8.384;2024-02-23T16:39:24;98371.00;;;21.04;32.81
85653;BME280;76083;49.012;8.384;2024-02-23T16:39:36;98366.09;;;21.06;32.85
85653;BME280;76083;49.012;8.384;2024-02-23T16:39:46;98368.38;;;21.13;32.73
85653;BME280;76083;49.012;8.384;2024-02-23T16:39:56;98359.63;;;21.16;33.41
85653;BME280;76083;49.012;8.384;2024-02-23T16:40:07;98359.19;;;21.50;34.20
85653;BME280;76083;49.012;8.384;2024-02-23T16:40:18;98366.16;;;21.42;32.61
85653;BME280;76083;49.012;8.384;2024-02-23T16:40:28;98353.88;;;21.45;32.24
85653;BME280;76083;49.012;8.384;2024-02-23T16:40:39;98361.34;;;21.39;31.94
85653;BME280;76083;49.012;8.384;2024-02-23T16:40:49;98360.53;;;21.39;33.64
85653;BME280;76083;49.012;8.384;2024-02-23T16:41:00;98373.25;;;21.29;31.90
85653;BME280;76083;49.012;8.384;2024-02-23T16:41:10;98374.31;;;21.28;32.24
85653;BME280;76083;49.012;8.384;2024-02-23T16:41:21;98363.56;;;21.23;32.51
85653;BME280;76083;49.012;8.384;2024-02-23T16:41:32;98367.16;;;21.19;31.95
85653;BME280;76083;49.012;8.384;2024-02-23T16:41:42;98371.28;;;21.16;32.31
85653;BME280;76083;49.012;8.384;2024-02-23T16:41:53;98374.63;;;21.13;32.37
85653;BME280;76083;49.012;8.384;2024-02-23T16:42:03;98366.59;;;21.08;32.23
85653;BME280;76083;49.012;8.384;2024-02-23T16:42:13;98374.00;;;21.16;38.14
85653;BME280;76083;49.012;8.384;2024-02-23T16:42:24;98366.97;;;21.15;33.90
85653;BME280;76083;49.012;8.384;2024-02-23T16:42:34;98367.59;;;21.12;33.41
85653;BME280;76083;49.012;8.384;2024-02-23T16:42:44;98366.59;;;21.08;33.19
85653;BME280;76083;49.012;8.384;2024-02-23T16:42:55;98369.31;;;21.08;33.11
85653;BME280;76083;49.012;8.384;2024-02-23T16:43:06;98369.59;;;21.06;33.12
85653;BME280;76083;49.012;8.384;2024-02-23T16:43:16;98361.75;;;21.05;33.08
85653;BME280;76083;49.012;8.384;2024-02-23T16:43:26;98370.63;;;20.97;32.39
85653;BME280;76083;49.012;8.384;2024-02-23T16:43:37;98369.50;;;20.98;32.68
85653;BME280;76083;49.012;8.384;2024-02-23T16:43:50;98366.59;;;20.94;32.41
85653;BME280;76083;49.012;8.384;2024-02-23T16:44:00;98363.19;;;20.89;32.33
85653;BME280;76083;49.012;8.384;2024-02-23T16:44:10;98368.72;;;20.84;32.62
85653;BME280;76083;49.012;8.384;2024-02-23T16:44:21;98364.78;;;20.76;32.31
85653;BME280;76083;49.012;8.384;2024-02-23T16:44:31;98362.38;;;20.74;32.49
85653;BME280;76083;49.012;8.384;2024-02-23T16:44:41;98369.41;;;20.75;32.74
85653;BME280;76083;49.012;8.384;2024-02-23T16:44:51;98366.78;;;20.70;32.27
85653;BME280;76083;49.012;8.384;2024-02-23T16:45:01;98369.00;;;20.68;32.39
85653;BME280;76083;49.012;8.384;2024-02-23T16:45:15;98367.78;;;20.61;32.46
85653;BME280;76083;49.012;8.384;2024-02-23T16:45:27;98361.06;;;20.58;32.41
85653;BME280;76083;49.012;8.384;2024-02-23T16:45:37;98364.88;;;20.57;32.60
85653;BME280;76083;49.012;8.384;2024-02-23T16:45:47;98362.97;;;20.58;32.67
85653;BME280;76083;49.012;8.384;2024-02-23T16:45:57;98363.56;;;20.68;32.72
85653;BME280;76083;49.012;8.384;2024-02-23T16:46:27;98369.22;;;20.86;32.51
85653;BME280;76083;49.012;8.384;2024-02-23T16:46:37;98362.09;;;20.90;32.48
85653;BME280;76083;49.012;8.384;2024-02-23T16:46:47;98363.06;;;20.80;32.40
85653;BME280;76083;49.012;8.384;2024-02-23T16:46:58;98364.97;;;20.80;32.57
85653;BME280;76083;49.012;8.384;2024-02-23T16:47:08;98364.28;;;20.88;32.60
85653;BME280;76083;49.012;8.384;2024-02-23T16:47:18;98358.88;;;20.88;32.53
85653;BME280;76083;49.012;8.384;2024-02-23T16:47:28;98365.38;;;20.73;32.10
85653;BME280;76083;49.012;8.384;2024-02-23T16:47:38;98365.06;;;20.74;32.34
85653;BME280;76083;49.012;8.384;2024-02-23T16:47:49;98364.28;;;20.60;32.44
85653;BME280;76083;49.012;8.384;2024-02-23T16:47:59;98363.97;;;20.62;33.08
85653;BME280;76083;49.012;8.384;2024-02-23T16:48:09;98360.75;;;20.60;32.91
85653;BME280;76083;49.012;8.384;2024-02-23T16:48:20;98361.16;;;20.53;32.85
85653;BME280;76083;49.012;8.384;2024-02-23T16:48:30;98367.09;;;20.55;32.90
85653;BME280;76083;49.012;8.384;2024-02-23T16:48:40;98357.25;;;20.59;32.69
85653;BME280;76083;49.012;8.384;2024-02-23T16:48:50;98367.00;;;20.60;32.56
85653;BME280;76083;49.012;8.384;2024-02-23T16:49:01;98368.28;;;20.49;32.38
85653;BME280;76083;49.012;8.384;2024-02-23T16:49:11;98373.00;;;20.43;32.49
85653;BME280;76083;49.012;8.384;2024-02-23T16:49:21;98369.28;;;20.53;32.51
85653;BME280;76083;49.012;8.384;2024-02-23T16:49:31;98364.47;;;20.50;32.88
85653;BME280;76083;49.012;8.384;2024-02-23T16:49:42;98372.25;;;20.38;32.61
85653;BME280;76083;49.012;8.384;2024-02-23T16:49:52;98367.13;;;20.36;32.63
85653;BME280;76083;49.012;8.384;2024-02-23T16:50:03;98372.41;;;20.47;32.70
85653;BME280;76083;49.012;8.384;2024-02-23T16:50:13;98369.56;;;20.38;32.69